»·PEaware :: N346PK KSMX-KBFL

N346PK :: KSMX-KBFL

FLIGHT INFORMATION

Flight Status: Arrived
Operator: Privately registered:
United States
More flights under this callsign
Pilot: Arief P. (18438)
Aircraft: ROBIN DR-400
(DR40)
More flights by this aircraft type
Origin: KSMX Santa Maria Pub/Capt Hancock
United States
Destination: KBFL Meadows
United States
More flights between these airports :: More routes between these airports
Route: +
File this flight plan on PilotEdge
Remarks:
Altitude:
(Current/Filed)
0ft
Speed:
(Current/Filed)
0kts
Departed: 21-Sep-18 07:51 PM
Arrived: 21-Sep-18 08:34 PM
Distance/Time
Traveled:
76nm/0:43
Distance/Time
To Go:
Arrived

Flight Plot

Page will automatically refresh every two minutes.


Map Options




Map Legend


Flown Route
Filed Route
Departure Airport
Arrival Airport
Navaid (VOR, NDB)
Fix

Horizontal Profiles

Position Reports

Time Latitude Longitude Heading Altitude Ground
Speed
21-Sep-18 19:35 34.904600 -120.454293 228 264ft 0kts
21-Sep-18 19:36 34.904600 -120.454293 228 264ft 0kts
21-Sep-18 19:37 34.904600 -120.454293 228 264ft 0kts
21-Sep-18 19:38 34.904600 -120.454293 228 264ft 0kts
21-Sep-18 19:39 34.904600 -120.454293 228 264ft 0kts
21-Sep-18 19:40 34.903294 -120.455830 143 264ft 12kts
21-Sep-18 19:41 34.899759 -120.451458 137 264ft 21kts
21-Sep-18 19:42 34.899310 -120.450971 136 264ft 0kts
21-Sep-18 19:43 34.899303 -120.450962 136 264ft 1kts
21-Sep-18 19:44 34.897505 -120.449995 180 264ft 0kts
21-Sep-18 19:45 34.897505 -120.449995 180 264ft 0kts
21-Sep-18 19:46 34.897255 -120.450003 178 264ft 0kts
21-Sep-18 19:47 34.897255 -120.450003 178 264ft 0kts
21-Sep-18 19:48 34.898448 -120.449832 32 264ft 0kts
21-Sep-18 19:49 34.898185 -120.448443 136 264ft 15kts
21-Sep-18 19:50 34.894577 -120.444969 213 264ft 16kts
21-Sep-18 19:51 34.893079 -120.445038 207 264ft 0kts
21-Sep-18 19:52 34.892806 -120.445294 240 264ft 13kts
21-Sep-18 19:53 34.904617 -120.461356 310 650ft 81kts
21-Sep-18 19:54 34.915666 -120.451024 91 1410ft 79kts
21-Sep-18 19:55 34.920500 -120.424435 71 2168ft 79kts
21-Sep-18 19:56 34.927831 -120.399588 67 2961ft 77kts
21-Sep-18 19:57 34.936117 -120.375564 65 3761ft 76kts
21-Sep-18 19:58 34.944789 -120.351963 65 4556ft 77kts
21-Sep-18 19:59 34.953841 -120.328124 64 5354ft 78kts
21-Sep-18 20:00 34.963097 -120.303774 64 6151ft 81kts
21-Sep-18 20:01 34.972646 -120.278833 64 6948ft 82kts
21-Sep-18 20:02 34.983064 -120.251775 64 7434ft 108kts
21-Sep-18 20:03 34.996997 -120.215241 64 7427ft 122kts
21-Sep-18 20:04 35.011335 -120.177794 64 7426ft 122kts
21-Sep-18 20:05 35.026611 -120.138010 64 7427ft 136kts
21-Sep-18 20:06 35.042722 -120.095927 64 7426ft 137kts
21-Sep-18 20:07 35.058802 -120.053900 64 7426ft 137kts
21-Sep-18 20:08 35.075000 -120.011789 63 7425ft 137kts
21-Sep-18 20:09 35.091183 -119.969558 64 7425ft 137kts
21-Sep-18 20:10 35.106482 -119.929465 64 7425ft 137kts
21-Sep-18 20:11 35.121366 -119.890076 64 7426ft 137kts
21-Sep-18 20:12 35.137343 -119.847922 64 7426ft 137kts
21-Sep-18 20:13 35.153296 -119.805890 64 7426ft 138kts
21-Sep-18 20:14 35.169589 -119.762924 64 7426ft 139kts
21-Sep-18 20:15 35.185813 -119.720088 64 7426ft 139kts
21-Sep-18 20:16 35.202063 -119.677132 64 7426ft 139kts
21-Sep-18 20:17 35.218270 -119.634230 64 7426ft 139kts
21-Sep-18 20:18 35.234189 -119.591979 64 7426ft 139kts
21-Sep-18 20:19 35.250413 -119.548815 64 7426ft 139kts
21-Sep-18 20:20 35.266476 -119.506116 64 7426ft 139kts
21-Sep-18 20:21 35.282564 -119.463302 64 7426ft 139kts
21-Sep-18 20:22 35.298530 -119.420798 64 7426ft 139kts
21-Sep-18 20:23 35.314657 -119.377733 64 7426ft 139kts
21-Sep-18 20:24 35.330477 -119.335572 65 7427ft 139kts
21-Sep-18 20:25 35.346212 -119.293432 65 7426ft 139kts
21-Sep-18 20:26 35.362347 -119.250139 65 7426ft 139kts
21-Sep-18 20:27 35.378094 -119.207959 64 7407ft 120kts
21-Sep-18 20:28 35.394513 -119.174034 52 6387ft 112kts
21-Sep-18 20:29 35.408963 -119.146317 66 4992ft 93kts
21-Sep-18 20:30 35.410485 -119.115963 98 3855ft 91kts
21-Sep-18 20:31 35.412523 -119.086782 76 2916ft 86kts
21-Sep-18 20:32 35.413141 -119.060557 124 2010ft 67kts
21-Sep-18 20:33 35.402735 -119.043758 63 1327ft 63kts
21-Sep-18 20:34 35.416697 -119.037516 333 950ft 60kts
21-Sep-18 20:35 35.429266 -119.050701 314 563ft 62kts
21-Sep-18 20:36 35.439444 -119.062679 353 498ft 18kts
21-Sep-18 20:37 35.440719 -119.062681 358 498ft 8kts
21-Sep-18 20:38 35.442276 -119.063850 38 498ft 0kts

Navigation Log

Ident Type
Flight plan parsing failed, navigation log unavailable